createdAt,value
2023-01-02T00:01:25.000Z,284.77
2023-01-02T00:02:51.000Z,284.71
2023-01-02T00:04:58.000Z,284.65
2023-01-02T00:06:24.000Z,284.59
2023-01-02T00:08:30.000Z,284.59
2023-01-02T00:09:57.000Z,284.71
2023-01-02T00:12:03.000Z,284.84
2023-01-02T00:13:30.000Z,284.84
2023-01-02T00:15:36.000Z,284.77
2023-01-02T00:17:02.000Z,284.71
2023-01-02T00:19:08.000Z,284.77
2023-01-02T00:21:59.000Z,284.71
2023-01-02T00:23:26.000Z,284.77
2023-01-02T00:25:32.000Z,284.65
2023-01-02T00:26:59.000Z,284.77
2023-01-02T00:29:05.000Z,284.71
2023-01-02T00:30:31.000Z,284.65
2023-01-02T00:32:42.000Z,284.77
2023-01-02T00:34:09.000Z,284.84
2023-01-02T00:36:15.000Z,284.9
2023-01-02T00:37:41.000Z,284.9
2023-01-02T00:39:47.000Z,284.96
2023-01-02T00:41:14.000Z,284.9
2023-01-02T00:43:20.000Z,284.9
2023-01-02T00:44:47.000Z,284.9
2023-01-02T00:46:53.000Z,284.77
2023-01-02T00:48:20.000Z,284.71
2023-01-02T00:50:26.000Z,284.65
2023-01-02T00:51:52.000Z,284.65
2023-01-02T00:53:58.000Z,284.71
2023-01-02T00:55:25.000Z,284.77
2023-01-02T00:57:31.000Z,284.84
2023-01-02T01:00:22.000Z,284.9
2023-01-02T01:01:49.000Z,284.77
2023-01-02T01:03:55.000Z,284.77
2023-01-02T01:05:22.000Z,284.71
2023-01-02T01:07:28.000Z,284.77
2023-01-02T01:08:54.000Z,284.84
2023-01-02T01:11:00.000Z,284.84
2023-01-02T01:12:27.000Z,284.77
2023-01-02T01:14:33.000Z,284.77
2023-01-02T01:16:00.000Z,284.77
2023-01-02T01:18:06.000Z,284.65
2023-01-02T01:19:32.000Z,284.65
2023-01-02T01:21:38.000Z,284.71
2023-01-02T01:23:05.000Z,284.71
2023-01-02T01:25:11.000Z,284.65
2023-01-02T01:26:37.000Z,284.65
2023-01-02T01:28:44.000Z,284.59
2023-01-02T01:30:10.000Z,284.59
2023-01-02T01:32:16.000Z,284.59
2023-01-02T01:33:43.000Z,284.59
2023-01-02T01:35:49.000Z,284.52
2023-01-02T01:38:40.000Z,284.52
2023-01-02T01:40:06.000Z,284.59
2023-01-02T01:42:13.000Z,284.52
2023-01-02T01:43:39.000Z,284.52
2023-01-02T01:45:45.000Z,284.4
2023-01-02T01:47:12.000Z,284.46
2023-01-02T01:49:18.000Z,284.46
2023-01-02T01:50:45.000Z,284.46
2023-01-02T01:52:51.000Z,284.46
2023-01-02T01:54:17.000Z,284.4
2023-01-02T01:56:23.000Z,284.4
2023-01-02T01:57:50.000Z,284.34
2023-01-02T01:59:56.000Z,284.4
2023-01-02T02:01:23.000Z,284.4
2023-01-02T02:03:29.000Z,284.27
2023-01-02T02:04:55.000Z,284.27
2023-01-02T02:07:01.000Z,284.4
2023-01-02T02:08:28.000Z,284.34
2023-01-02T02:10:34.000Z,284.34
2023-01-02T02:12:00.000Z,284.27
2023-01-02T02:14:06.000Z,284.27
2023-01-02T02:16:58.000Z,284.27
2023-01-02T02:18:24.000Z,284.34
2023-01-02T02:20:30.000Z,284.21
2023-01-02T02:21:57.000Z,284.15
2023-01-02T02:24:03.000Z,284.09
2023-01-02T02:25:30.000Z,284.02
2023-01-02T02:27:36.000Z,283.9
2023-01-02T02:29:02.000Z,283.9
2023-01-02T02:31:08.000Z,283.84
2023-01-02T02:32:35.000Z,283.84
2023-01-02T02:34:41.000Z,283.9
2023-01-02T02:36:08.000Z,283.96
2023-01-02T02:38:14.000Z,283.96
2023-01-02T02:39:40.000Z,284.02
2023-01-02T02:41:46.000Z,283.9
2023-01-02T02:43:13.000Z,283.96
2023-01-02T02:45:19.000Z,283.96
2023-01-02T02:46:46.000Z,283.9
2023-01-02T02:48:52.000Z,283.96
2023-01-02T02:50:18.000Z,284.02
2023-01-02T02:52:24.000Z,284.09
2023-01-02T02:55:16.000Z,284.27
2023-01-02T02:56:42.000Z,284.4
2023-01-02T02:58:48.000Z,284.27
2023-01-02T03:00:15.000Z,284.34
2023-01-02T03:02:21.000Z,284.52
2023-01-02T03:03:48.000Z,284.46
2023-01-02T03:05:54.000Z,284.27
2023-01-02T03:07:20.000Z,284.4
2023-01-02T03:09:26.000Z,284.65
2023-01-02T03:10:53.000Z,284.71
2023-01-02T03:12:59.000Z,284.59
2023-01-02T03:14:25.000Z,284.59
2023-01-02T03:16:32.000Z,284.59
2023-01-02T03:17:58.000Z,284.52
2023-01-02T03:20:04.000Z,284.46
2023-01-02T03:21:31.000Z,284.52
2023-01-02T03:23:37.000Z,284.52
2023-01-02T03:25:04.000Z,284.52
2023-01-02T03:27:10.000Z,284.52
2023-01-02T03:28:36.000Z,284.59
2023-01-02T03:30:42.000Z,284.52
2023-01-02T03:33:34.000Z,284.59
2023-01-02T03:35:00.000Z,284.65
2023-01-02T03:37:06.000Z,284.52
2023-01-02T03:38:33.000Z,284.52
2023-01-02T03:40:39.000Z,284.59
2023-01-02T03:42:05.000Z,284.65
2023-01-02T03:44:12.000Z,284.71
2023-01-02T03:45:38.000Z,284.65
2023-01-02T03:47:44.000Z,284.9
2023-01-02T03:49:11.000Z,284.84
2023-01-02T03:51:17.000Z,284.71
2023-01-02T03:52:43.000Z,284.77
2023-01-02T03:54:49.000Z,284.77
2023-01-02T03:56:16.000Z,284.77
2023-01-02T03:58:22.000Z,284.84
2023-01-02T03:59:48.000Z,284.84
2023-01-02T04:01:54.000Z,284.71
2023-01-02T04:03:21.000Z,284.77
2023-01-02T04:05:27.000Z,284.84
2023-01-02T04:06:54.000Z,284.84
2023-01-02T04:09:00.000Z,284.84
2023-01-02T04:11:51.000Z,284.84
2023-01-02T04:13:18.000Z,284.84
2023-01-02T04:15:24.000Z,284.77
2023-01-02T04:16:51.000Z,284.65
2023-01-02T04:18:57.000Z,284.71
2023-01-02T04:20:23.000Z,284.71
2023-01-02T04:22:29.000Z,284.59
2023-01-02T04:23:56.000Z,284.77
2023-01-02T04:26:02.000Z,284.84
2023-01-02T04:27:28.000Z,284.77
2023-01-02T04:29:34.000Z,284.65
2023-01-02T04:31:01.000Z,284.52
2023-01-02T04:33:07.000Z,284.65
2023-01-02T04:34:34.000Z,284.71
2023-01-02T04:36:40.000Z,284.52
2023-01-02T04:38:06.000Z,284.52
2023-01-02T04:40:13.000Z,284.77
2023-01-02T04:41:39.000Z,284.84
2023-01-02T04:43:45.000Z,284.9
2023-01-02T04:45:12.000Z,284.84
2023-01-02T04:47:18.000Z,284.96
2023-01-02T04:50:11.000Z,284.77
2023-01-02T04:51:37.000Z,284.77
2023-01-02T04:53:43.000Z,284.84
2023-01-02T04:55:10.000Z,284.9
2023-01-02T04:57:16.000Z,284.9
2023-01-02T04:58:42.000Z,284.96
2023-01-02T05:00:49.000Z,284.96
2023-01-02T05:02:15.000Z,285.02
2023-01-02T05:04:21.000Z,284.96
2023-01-02T05:05:48.000Z,285.09
2023-01-02T05:07:54.000Z,285.02
2023-01-02T05:09:20.000Z,285.15
2023-01-02T05:11:27.000Z,285.09
2023-01-02T05:12:53.000Z,285.15
2023-01-02T05:14:59.000Z,285.15
2023-01-02T05:16:26.000Z,285.15
2023-01-02T05:18:32.000Z,284.96
2023-01-02T05:19:58.000Z,285.02
2023-01-02T05:22:05.000Z,284.96
2023-01-02T05:23:31.000Z,285.09
2023-01-02T05:25:37.000Z,285.15
2023-01-02T05:28:29.000Z,285.02
2023-01-02T05:30:02.000Z,285.15
2023-01-02T05:32:09.000Z,285.21
2023-01-02T05:33:35.000Z,285.21
2023-01-02T05:35:41.000Z,285.27
2023-01-02T05:37:08.000Z,285.34
2023-01-02T05:39:14.000Z,285.34
2023-01-02T05:40:40.000Z,285.4
2023-01-02T05:42:46.000Z,285.27
2023-01-02T05:44:13.000Z,285.27
2023-01-02T05:46:19.000Z,285.34
2023-01-02T05:47:46.000Z,285.27
2023-01-02T05:49:52.000Z,285.27
2023-01-02T05:51:18.000Z,285.27
2023-01-02T05:53:25.000Z,285.15
2023-01-02T05:54:51.000Z,285.27
2023-01-02T05:56:57.000Z,285.27
2023-01-02T05:58:24.000Z,285.34
2023-01-02T06:00:30.000Z,285.27
2023-01-02T06:01:57.000Z,285.27
2023-01-02T06:04:03.000Z,285.34
2023-01-02T06:06:54.000Z,285.34
2023-01-02T06:08:21.000Z,285.4
2023-01-02T06:10:27.000Z,285.34
2023-01-02T06:11:53.000Z,285.4
2023-01-02T06:13:59.000Z,285.27
2023-01-02T06:15:26.000Z,285.27
2023-01-02T06:17:32.000Z,285.34
2023-01-02T06:18:58.000Z,285.34
2023-01-02T06:21:05.000Z,285.34
2023-01-02T06:22:31.000Z,285.46
2023-01-02T06:24:37.000Z,285.4
2023-01-02T06:26:04.000Z,285.34
2023-01-02T06:28:10.000Z,285.46
2023-01-02T06:29:36.000Z,285.34
2023-01-02T06:31:42.000Z,285.34
2023-01-02T06:33:15.000Z,285.46
2023-01-02T06:35:22.000Z,285.27
2023-01-02T06:36:48.000Z,285.46
2023-01-02T06:38:54.000Z,285.46
2023-01-02T06:40:21.000Z,285.4
2023-01-02T06:42:27.000Z,285.34
2023-01-02T06:45:18.000Z,285.46
2023-01-02T06:46:45.000Z,285.52
2023-01-02T06:48:51.000Z,285.52
2023-01-02T06:50:17.000Z,285.4
2023-01-02T06:52:29.000Z,285.4
2023-01-02T06:53:56.000Z,285.34
2023-01-02T06:56:02.000Z,285.46
2023-01-02T06:57:28.000Z,285.4
2023-01-02T06:59:34.000Z,285.52
2023-01-02T07:01:01.000Z,285.52
2023-01-02T07:03:07.000Z,285.46
2023-01-02T07:04:34.000Z,285.4
2023-01-02T07:06:40.000Z,285.4
2023-01-02T07:08:06.000Z,285.46
2023-01-02T07:10:13.000Z,285.46
2023-01-02T07:11:39.000Z,285.52
2023-01-02T07:13:45.000Z,285.52
2023-01-02T07:15:12.000Z,285.59
2023-01-02T07:17:18.000Z,285.52
2023-01-02T07:18:44.000Z,285.4
2023-01-02T07:20:50.000Z,285.34
2023-01-02T07:23:42.000Z,285.15
2023-01-02T07:25:08.000Z,285.27
2023-01-02T07:27:14.000Z,285.34
2023-01-02T07:28:41.000Z,285.27
2023-01-02T07:30:47.000Z,285.15
2023-01-02T07:32:13.000Z,285.27
2023-01-02T07:34:20.000Z,285.27
2023-01-02T07:35:46.000Z,285.21
2023-01-02T07:37:52.000Z,285.21
2023-01-02T07:39:19.000Z,285.15
2023-01-02T07:41:25.000Z,285.09
2023-01-02T07:42:51.000Z,285.02
2023-01-02T07:44:57.000Z,285.09
2023-01-02T07:46:24.000Z,285.21
2023-01-02T07:48:30.000Z,285.27
2023-01-02T07:49:57.000Z,285.21
2023-01-02T07:52:03.000Z,285.09
2023-01-02T07:53:29.000Z,285.09
2023-01-02T07:55:36.000Z,285.09
2023-01-02T07:57:02.000Z,285.02
2023-01-02T07:59:08.000Z,285.02
2023-01-02T08:01:59.000Z,284.96
2023-01-02T08:03:26.000Z,285.02
2023-01-02T08:05:32.000Z,285.34
2023-01-02T08:06:59.000Z,285.34
2023-01-02T08:09:05.000Z,285.34
2023-01-02T08:10:31.000Z,285.21
2023-01-02T08:12:38.000Z,285.15
2023-01-02T08:14:04.000Z,285.09
2023-01-02T08:16:10.000Z,285.15
2023-01-02T08:17:37.000Z,285.15
2023-01-02T08:19:43.000Z,285.09
2023-01-02T08:21:09.000Z,285.02
2023-01-02T08:23:16.000Z,284.96
2023-01-02T08:24:42.000Z,284.96
2023-01-02T08:26:48.000Z,284.9
2023-01-02T08:28:15.000Z,284.9
2023-01-02T08:30:21.000Z,284.9
2023-01-02T08:31:47.000Z,284.9
2023-01-02T08:33:53.000Z,285.02
2023-01-02T08:35:20.000Z,284.9
2023-01-02T08:37:42.000Z,284.77
2023-01-02T08:40:39.000Z,284.9
2023-01-02T08:42:06.000Z,284.9
2023-01-02T08:44:12.000Z,284.96
2023-01-02T08:45:38.000Z,284.96
2023-01-02T08:47:44.000Z,285.02
2023-01-02T08:49:11.000Z,285.02
2023-01-02T08:51:17.000Z,284.9
2023-01-02T08:52:44.000Z,284.9
2023-01-02T08:54:50.000Z,284.84
2023-01-02T08:56:16.000Z,284.96
2023-01-02T08:58:23.000Z,284.9
2023-01-02T08:59:49.000Z,284.84
2023-01-02T09:01:55.000Z,285.02
2023-01-02T09:03:22.000Z,285.09
2023-01-02T09:05:28.000Z,285.21
2023-01-02T09:06:55.000Z,285.34
2023-01-02T09:09:01.000Z,285.27
2023-01-02T09:10:36.000Z,285.15
2023-01-02T09:12:42.000Z,285.15
2023-01-02T09:14:09.000Z,285.27
2023-01-02T09:16:15.000Z,285.21
2023-01-02T09:19:06.000Z,285.21
2023-01-02T09:20:32.000Z,285.09
2023-01-02T09:22:38.000Z,285.15
2023-01-02T09:24:06.000Z,285.21
2023-01-02T09:26:12.000Z,285.15
2023-01-02T09:27:39.000Z,285.21
2023-01-02T09:29:45.000Z,285.15
2023-01-02T09:31:11.000Z,285.21
2023-01-02T09:33:18.000Z,285.27
2023-01-02T09:34:44.000Z,285.34
2023-01-02T09:36:50.000Z,285.34
2023-01-02T09:38:17.000Z,285.27
2023-01-02T09:40:23.000Z,285.4
2023-01-02T09:41:49.000Z,285.27
2023-01-02T09:43:56.000Z,285.4
2023-01-02T09:45:22.000Z,285.34
2023-01-02T09:47:28.000Z,285.46
2023-01-02T09:48:55.000Z,285.46
2023-01-02T09:51:01.000Z,285.4
2023-01-02T09:52:32.000Z,285.4
2023-01-02T09:54:38.000Z,285.34
2023-01-02T09:57:30.000Z,285.46
2023-01-02T09:58:56.000Z,285.46
2023-01-02T10:01:02.000Z,285.46
2023-01-02T10:02:29.000Z,285.52
2023-01-02T10:04:35.000Z,285.4
2023-01-02T10:06:01.000Z,285.52
2023-01-02T10:08:08.000Z,285.59
2023-01-02T10:09:34.000Z,285.59
2023-01-02T10:11:40.000Z,285.52
2023-01-02T10:13:07.000Z,285.52
2023-01-02T10:15:13.000Z,285.52
2023-01-02T10:16:39.000Z,285.52
2023-01-02T10:18:46.000Z,285.46
2023-01-02T10:20:12.000Z,285.59
2023-01-02T10:22:24.000Z,285.52
2023-01-02T10:23:50.000Z,285.46
2023-01-02T10:25:57.000Z,285.4
2023-01-02T10:27:23.000Z,285.34
2023-01-02T10:29:29.000Z,285.4
2023-01-02T10:30:56.000Z,285.4
2023-01-02T10:33:09.000Z,285.34
2023-01-02T10:36:00.000Z,285.34
2023-01-02T10:37:26.000Z,285.4
2023-01-02T10:39:32.000Z,285.34
2023-01-02T10:40:59.000Z,285.34
2023-01-02T10:43:05.000Z,285.27
2023-01-02T10:44:32.000Z,285.21
2023-01-02T10:46:38.000Z,285.15
2023-01-02T10:48:04.000Z,285.15
2023-01-02T10:50:10.000Z,285.09
2023-01-02T10:51:37.000Z,285.02
2023-01-02T10:53:43.000Z,284.9
2023-01-02T10:55:10.000Z,284.84
2023-01-02T10:57:16.000Z,284.77
2023-01-02T10:58:42.000Z,284.71
2023-01-02T11:00:48.000Z,284.65
2023-01-02T11:02:15.000Z,284.59
2023-01-02T11:04:21.000Z,284.52
2023-01-02T11:05:48.000Z,284.59
2023-01-02T11:07:54.000Z,284.46
2023-01-02T11:09:20.000Z,284.46
2023-01-02T11:11:27.000Z,284.46
2023-01-02T11:14:18.000Z,284.46
2023-01-02T11:15:44.000Z,284.46
2023-01-02T11:17:50.000Z,284.4
2023-01-02T11:19:17.000Z,284.46
2023-01-02T11:21:28.000Z,284.46
2023-01-02T11:22:54.000Z,284.46
2023-01-02T11:25:00.000Z,284.46
2023-01-02T11:26:27.000Z,284.46
2023-01-02T11:28:33.000Z,284.52
2023-01-02T11:30:00.000Z,284.52
2023-01-02T11:32:06.000Z,284.52
2023-01-02T11:33:32.000Z,284.52
2023-01-02T11:35:39.000Z,284.59
2023-01-02T11:37:05.000Z,284.59
2023-01-02T11:39:11.000Z,284.52
2023-01-02T11:40:38.000Z,284.52
2023-01-02T11:42:44.000Z,284.52
2023-01-02T11:44:10.000Z,284.52
2023-01-02T11:46:24.000Z,284.4
2023-01-02T11:47:50.000Z,284.4
2023-01-02T11:49:57.000Z,284.4
2023-01-02T11:52:48.000Z,284.34
2023-01-02T11:54:14.000Z,284.4
2023-01-02T11:56:20.000Z,284.34
2023-01-02T11:57:47.000Z,284.34
2023-01-02T11:59:53.000Z,284.34
2023-01-02T12:01:20.000Z,284.34
2023-01-02T12:03:26.000Z,284.34
2023-01-02T12:04:52.000Z,284.34
2023-01-02T12:06:58.000Z,284.27
2023-01-02T12:08:25.000Z,284.21
2023-01-02T12:10:31.000Z,284.21
2023-01-02T12:11:57.000Z,284.21
2023-01-02T12:14:04.000Z,284.21
2023-01-02T12:15:30.000Z,284.15
2023-01-02T12:17:36.000Z,284.15
2023-01-02T12:19:03.000Z,284.15
2023-01-02T12:21:09.000Z,284.09
2023-01-02T12:22:35.000Z,284.02
2023-01-02T12:24:42.000Z,284.02
2023-01-02T12:26:08.000Z,284.02
2023-01-02T12:28:14.000Z,283.96
2023-01-02T12:31:06.000Z,283.96
2023-01-02T12:32:32.000Z,283.96
2023-01-02T12:34:38.000Z,283.9
2023-01-02T12:36:05.000Z,283.96
2023-01-02T12:38:11.000Z,283.96
2023-01-02T12:39:43.000Z,283.96
2023-01-02T12:41:50.000Z,283.84
2023-01-02T12:43:26.000Z,283.84
2023-01-02T12:45:32.000Z,283.84
2023-01-02T12:46:59.000Z,283.84
2023-01-02T12:49:05.000Z,283.84
2023-01-02T12:50:32.000Z,283.84
2023-01-02T12:52:38.000Z,283.84
2023-01-02T12:54:04.000Z,283.84
2023-01-02T12:56:24.000Z,283.77
2023-01-02T12:57:51.000Z,283.84
2023-01-02T12:59:57.000Z,283.77
2023-01-02T13:01:23.000Z,283.77
2023-01-02T13:03:30.000Z,283.77
2023-01-02T13:04:56.000Z,283.77
2023-01-02T13:07:03.000Z,283.77
2023-01-02T13:10:13.000Z,283.71
2023-01-02T13:11:39.000Z,283.65
2023-01-02T13:13:45.000Z,283.65
2023-01-02T13:15:12.000Z,283.71
2023-01-02T13:17:18.000Z,283.71
2023-01-02T13:18:44.000Z,283.71
2023-01-02T13:21:04.000Z,283.65
2023-01-02T13:22:31.000Z,283.65
2023-01-02T13:24:37.000Z,283.59
2023-01-02T13:26:04.000Z,283.59
2023-01-02T13:28:10.000Z,283.59
2023-01-02T13:29:36.000Z,283.59
2023-01-02T13:31:42.000Z,283.59
2023-01-02T13:33:12.000Z,283.65
2023-01-02T13:35:18.000Z,283.59
2023-01-02T13:36:44.000Z,283.59
2023-01-02T13:38:50.000Z,283.52
2023-01-02T13:40:17.000Z,283.52
2023-01-02T13:42:23.000Z,283.52
2023-01-02T13:43:50.000Z,283.52
2023-01-02T13:45:56.000Z,283.52
2023-01-02T13:48:47.000Z,283.52
2023-01-02T13:50:13.000Z,283.52
2023-01-02T13:52:19.000Z,283.52
2023-01-02T13:53:46.000Z,283.59
2023-01-02T13:55:52.000Z,283.52
2023-01-02T13:57:19.000Z,283.52
2023-01-02T13:59:25.000Z,283.46
2023-01-02T14:01:07.000Z,283.52
2023-01-02T14:03:14.000Z,283.52
2023-01-02T14:04:40.000Z,283.46
2023-01-02T14:06:46.000Z,283.46
2023-01-02T14:08:18.000Z,283.46
2023-01-02T14:10:24.000Z,283.46
2023-01-02T14:11:51.000Z,283.46
2023-01-02T14:14:01.000Z,283.46
2023-01-02T14:15:28.000Z,283.52
2023-01-02T14:17:34.000Z,283.46
2023-01-02T14:19:00.000Z,283.46
2023-01-02T14:21:06.000Z,283.52
2023-01-02T14:22:33.000Z,283.52
2023-01-02T14:24:39.000Z,283.52
2023-01-02T14:27:31.000Z,283.46
2023-01-02T14:28:57.000Z,283.52
2023-01-02T14:31:03.000Z,283.52
2023-01-02T14:32:30.000Z,283.46
2023-01-02T14:34:36.000Z,283.46
2023-01-02T14:36:02.000Z,283.46
2023-01-02T14:38:08.000Z,283.46
2023-01-02T14:39:35.000Z,283.46
2023-01-02T14:41:41.000Z,283.46
2023-01-02T14:43:08.000Z,283.46
2023-01-02T14:45:14.000Z,283.46
2023-01-02T14:46:40.000Z,283.4
2023-01-02T14:48:46.000Z,283.4
2023-01-02T14:50:13.000Z,283.4
2023-01-02T14:52:19.000Z,283.4
2023-01-02T14:53:45.000Z,283.4
2023-01-02T14:55:51.000Z,283.4
2023-01-02T14:57:18.000Z,283.4
2023-01-02T14:59:24.000Z,283.4
2023-01-02T15:00:50.000Z,283.4
2023-01-02T15:02:56.000Z,283.4
2023-01-02T15:05:48.000Z,283.4
2023-01-02T15:07:15.000Z,283.4
2023-01-02T15:09:21.000Z,283.34
2023-01-02T15:10:47.000Z,283.34
2023-01-02T15:12:53.000Z,283.34
2023-01-02T15:14:20.000Z,283.34
2023-01-02T15:16:28.000Z,283.27
2023-01-02T15:17:54.000Z,283.34
2023-01-02T15:20:00.000Z,283.27
2023-01-02T15:21:27.000Z,283.27
2023-01-02T15:23:33.000Z,283.27
2023-01-02T15:25:00.000Z,283.27
2023-01-02T15:27:06.000Z,283.27
2023-01-02T15:28:32.000Z,283.27
2023-01-02T15:30:39.000Z,283.27
2023-01-02T15:32:05.000Z,283.27
2023-01-02T15:34:11.000Z,283.27
2023-01-02T15:35:38.000Z,283.27
2023-01-02T15:37:44.000Z,283.21
2023-01-02T15:39:10.000Z,283.21
2023-01-02T15:41:16.000Z,283.21
2023-01-02T15:44:08.000Z,283.21
2023-01-02T15:45:34.000Z,283.21
2023-01-02T15:47:40.000Z,283.15
2023-01-02T15:49:07.000Z,283.15
2023-01-02T15:51:13.000Z,283.15
2023-01-02T15:52:39.000Z,283.15
2023-01-02T15:54:46.000Z,283.15
2023-01-02T15:56:12.000Z,283.15
2023-01-02T15:58:18.000Z,283.02
2023-01-02T15:59:45.000Z,283.02
2023-01-02T16:01:51.000Z,282.96
2023-01-02T16:03:18.000Z,282.96
2023-01-02T16:05:24.000Z,282.9
2023-01-02T16:06:50.000Z,282.9
2023-01-02T16:08:56.000Z,282.9
2023-01-02T16:10:23.000Z,282.84
2023-01-02T16:12:29.000Z,282.84
2023-01-02T16:13:56.000Z,282.84
2023-01-02T16:16:02.000Z,282.84
2023-01-02T16:17:40.000Z,282.77
2023-01-02T16:19:47.000Z,282.77
2023-01-02T16:22:47.000Z,282.77
2023-01-02T16:24:13.000Z,282.71
2023-01-02T16:26:19.000Z,282.71
2023-01-02T16:27:46.000Z,282.71
2023-01-02T16:29:52.000Z,282.71
2023-01-02T16:31:19.000Z,282.71
2023-01-02T16:33:25.000Z,282.65
2023-01-02T16:34:52.000Z,282.65
2023-01-02T16:36:58.000Z,282.59
2023-01-02T16:38:24.000Z,282.59
2023-01-02T16:40:30.000Z,282.59
2023-01-02T16:42:27.000Z,282.59
2023-01-02T16:44:33.000Z,282.52
2023-01-02T16:45:59.000Z,282.52
2023-01-02T16:48:06.000Z,282.52
2023-01-02T16:49:32.000Z,282.52
2023-01-02T16:51:38.000Z,282.46
2023-01-02T16:53:05.000Z,282.46
2023-01-02T16:55:11.000Z,282.4
2023-01-02T16:56:37.000Z,282.4
2023-01-02T16:58:44.000Z,282.4
2023-01-02T17:01:35.000Z,282.34
2023-01-02T17:03:02.000Z,282.34
2023-01-02T17:05:08.000Z,282.34
2023-01-02T17:06:35.000Z,282.27
2023-01-02T17:08:41.000Z,282.21
2023-01-02T17:10:07.000Z,282.21
2023-01-02T17:12:13.000Z,282.21
2023-01-02T17:13:40.000Z,282.21
2023-01-02T17:15:46.000Z,282.21
2023-01-02T17:17:12.000Z,282.21
2023-01-02T17:19:19.000Z,282.15
2023-01-02T17:20:45.000Z,282.21
2023-01-02T17:22:51.000Z,282.15
2023-01-02T17:24:18.000Z,282.15
2023-01-02T17:26:24.000Z,282.09
2023-01-02T17:27:51.000Z,282.09
2023-01-02T17:29:57.000Z,282.02
2023-01-02T17:31:23.000Z,282.02
2023-01-02T17:33:30.000Z,281.96
2023-01-02T17:34:57.000Z,281.9
2023-01-02T17:37:03.000Z,281.84
2023-01-02T17:39:54.000Z,281.77
2023-01-02T17:41:21.000Z,281.77
2023-01-02T17:43:27.000Z,281.84
2023-01-02T17:44:53.000Z,281.84
2023-01-02T17:47:00.000Z,281.9
2023-01-02T17:49:03.000Z,281.9
2023-01-02T17:51:09.000Z,281.9
2023-01-02T17:52:36.000Z,281.96
2023-01-02T17:54:42.000Z,281.9
2023-01-02T17:56:08.000Z,281.9
2023-01-02T17:58:26.000Z,281.96
2023-01-02T17:59:53.000Z,281.96
2023-01-02T18:01:59.000Z,281.96
2023-01-02T18:03:26.000Z,281.96
2023-01-02T18:05:32.000Z,281.96
2023-01-02T18:06:59.000Z,281.96
2023-01-02T18:09:05.000Z,281.96
2023-01-02T18:10:31.000Z,281.96
2023-01-02T18:12:38.000Z,281.96
2023-01-02T18:14:04.000Z,281.96
2023-01-02T18:16:10.000Z,281.96
2023-01-02T18:21:01.000Z,281.96
2023-01-02T18:23:07.000Z,281.96
2023-01-02T18:24:33.000Z,282.02
2023-01-02T18:26:39.000Z,282.09
2023-01-02T18:28:06.000Z,282.09
2023-01-02T18:30:12.000Z,282.09
2023-01-02T18:31:39.000Z,282.02
2023-01-02T18:33:45.000Z,282.02
2023-01-02T18:35:11.000Z,281.96
2023-01-02T18:37:59.000Z,282.02
2023-01-02T18:39:26.000Z,281.96
2023-01-02T18:41:32.000Z,281.96
2023-01-02T18:42:58.000Z,281.96
2023-01-02T18:45:05.000Z,282.09
2023-01-02T18:46:31.000Z,282.09
2023-01-02T18:49:08.000Z,282.15
2023-01-02T18:50:35.000Z,282.15
2023-01-02T18:52:41.000Z,282.15
2023-01-02T18:54:07.000Z,282.09
2023-01-02T18:56:14.000Z,282.09
2023-01-02T18:59:05.000Z,282.09
2023-01-02T19:00:31.000Z,282.09
2023-01-02T19:02:37.000Z,282.02
2023-01-02T19:04:04.000Z,282.02
2023-01-02T19:06:23.000Z,282.15
2023-01-02T19:07:49.000Z,282.09
2023-01-02T19:09:55.000Z,282.09
2023-01-02T19:11:22.000Z,282.09
2023-01-02T19:13:28.000Z,282.02
2023-01-02T19:14:54.000Z,281.96
2023-01-02T19:17:00.000Z,281.84
2023-01-02T19:18:27.000Z,281.71
2023-01-02T19:20:33.000Z,281.59
2023-01-02T19:22:00.000Z,281.52
2023-01-02T19:24:06.000Z,281.46
2023-01-02T19:25:32.000Z,281.4
2023-01-02T19:27:38.000Z,281.34
2023-01-02T19:29:05.000Z,281.34
2023-01-02T19:31:11.000Z,281.34
2023-01-02T19:32:38.000Z,281.27
2023-01-02T19:34:44.000Z,281.34
2023-01-02T19:37:35.000Z,281.27
2023-01-02T19:39:01.000Z,281.34
2023-01-02T19:41:08.000Z,281.27
2023-01-02T19:42:34.000Z,281.27
2023-01-02T19:44:40.000Z,281.27
2023-01-02T19:46:07.000Z,281.27
2023-01-02T19:48:13.000Z,281.21
2023-01-02T19:49:43.000Z,281.21
2023-01-02T19:51:49.000Z,281.21
2023-01-02T19:53:15.000Z,281.21
2023-01-02T19:55:21.000Z,281.21
2023-01-02T19:56:48.000Z,281.21
2023-01-02T19:58:54.000Z,281.21
2023-01-02T20:00:21.000Z,281.27
2023-01-02T20:02:27.000Z,281.27
2023-01-02T20:03:53.000Z,281.27
2023-01-02T20:06:00.000Z,281.27
2023-01-02T20:07:26.000Z,281.34
2023-01-02T20:09:32.000Z,281.34
2023-01-02T20:10:59.000Z,281.34
2023-01-02T20:13:05.000Z,281.27
2023-01-02T20:15:56.000Z,281.21
2023-01-02T20:17:22.000Z,281.21
2023-01-02T20:19:28.000Z,281.15
2023-01-02T20:20:55.000Z,281.15
2023-01-02T20:23:01.000Z,281.15
2023-01-02T20:24:27.000Z,281.15
2023-01-02T20:26:33.000Z,281.09
2023-01-02T20:28:00.000Z,281.09
2023-01-02T20:30:06.000Z,281.09
2023-01-02T20:31:32.000Z,281.09
2023-01-02T20:33:39.000Z,281.02
2023-01-02T20:35:05.000Z,281.02
2023-01-02T20:37:11.000Z,280.96
2023-01-02T20:38:38.000Z,280.96
2023-01-02T20:40:44.000Z,280.9
2023-01-02T20:42:10.000Z,280.9
2023-01-02T20:44:17.000Z,280.77
2023-01-02T20:45:44.000Z,280.84
2023-01-02T20:47:50.000Z,280.9
2023-01-02T20:49:16.000Z,280.9
2023-01-02T20:51:22.000Z,280.96
2023-01-02T20:54:13.000Z,280.9
2023-01-02T20:55:40.000Z,280.84
2023-01-02T20:57:46.000Z,280.84
2023-01-02T20:59:17.000Z,280.84
2023-01-02T21:01:23.000Z,280.77
2023-01-02T21:02:50.000Z,280.84
2023-01-02T21:04:57.000Z,280.84
2023-01-02T21:06:23.000Z,280.71
2023-01-02T21:08:29.000Z,280.65
2023-01-02T21:09:56.000Z,280.65
2023-01-02T21:12:02.000Z,280.59
2023-01-02T21:13:29.000Z,280.59
2023-01-02T21:15:35.000Z,280.59
2023-01-02T21:17:01.000Z,280.59
2023-01-02T21:19:07.000Z,280.52
2023-01-02T21:20:34.000Z,280.46
2023-01-02T21:22:48.000Z,280.46
2023-01-02T21:24:14.000Z,280.46
2023-01-02T21:26:20.000Z,280.4
2023-01-02T21:27:47.000Z,280.4
2023-01-02T21:29:53.000Z,280.34
2023-01-02T21:32:44.000Z,280.27
2023-01-02T21:34:11.000Z,280.34
2023-01-02T21:36:17.000Z,280.4
2023-01-02T21:37:44.000Z,280.4
2023-01-02T21:39:50.000Z,280.4
2023-01-02T21:41:16.000Z,280.46
2023-01-02T21:43:23.000Z,280.52
2023-01-02T21:44:49.000Z,280.59
2023-01-02T21:46:55.000Z,280.59
2023-01-02T21:48:22.000Z,280.65
2023-01-02T21:50:28.000Z,280.71
2023-01-02T21:51:54.000Z,280.71
2023-01-02T21:54:01.000Z,280.71
2023-01-02T21:55:27.000Z,280.77
2023-01-02T21:59:10.000Z,280.84
2023-01-02T22:01:16.000Z,280.9
2023-01-02T22:02:42.000Z,280.9
2023-01-02T22:04:49.000Z,280.96
2023-01-02T22:06:15.000Z,280.96
2023-01-02T22:08:21.000Z,280.96
2023-01-02T22:11:13.000Z,280.9
2023-01-02T22:12:39.000Z,280.96
2023-01-02T22:14:45.000Z,281.02
2023-01-02T22:16:12.000Z,281.09
2023-01-02T22:18:18.000Z,281.02
2023-01-02T22:19:44.000Z,281.02
2023-01-02T22:21:51.000Z,280.96
2023-01-02T22:23:17.000Z,281.02
2023-01-02T22:25:23.000Z,281.02
2023-01-02T22:26:50.000Z,281.02
2023-01-02T22:28:56.000Z,281.02
2023-01-02T22:30:22.000Z,281.09
2023-01-02T22:32:38.000Z,281.02
2023-01-02T22:34:04.000Z,281.02
2023-01-02T22:36:11.000Z,280.96
2023-01-02T22:37:37.000Z,280.96
2023-01-02T22:39:43.000Z,280.9
2023-01-02T22:41:10.000Z,280.9
2023-01-02T22:43:16.000Z,280.84
2023-01-02T22:44:49.000Z,280.9
2023-01-02T22:46:55.000Z,280.9
2023-01-02T22:49:46.000Z,280.96
2023-01-02T22:51:13.000Z,280.96
2023-01-02T22:53:19.000Z,280.96
2023-01-02T22:54:45.000Z,280.96
2023-01-02T22:56:51.000Z,280.96
2023-01-02T22:58:18.000Z,281.02
2023-01-02T23:00:24.000Z,280.96
2023-01-02T23:01:50.000Z,280.96